createdAt,value
2018-08-31T00:00:15.265Z,89.20
2018-08-31T00:03:18.249Z,88.20
2018-08-31T00:06:29.992Z,87.80
2018-08-31T00:09:47.013Z,88.30
2018-08-31T00:13:07.892Z,88.10
2018-08-31T00:16:10.150Z,88.30
2018-08-31T00:19:15.753Z,88.30
2018-08-31T00:22:19.016Z,88.40
2018-08-31T00:26:33.336Z,88.30
2018-08-31T00:30:12.579Z,88.40
2018-08-31T00:33:42.455Z,88.40
2018-08-31T00:40:04.664Z,89.00
2018-08-31T00:43:24.716Z,89.20
2018-08-31T00:46:28.644Z,89.00
2018-08-31T00:49:31.331Z,89.40
2018-08-31T00:52:33.124Z,89.80
2018-08-31T00:55:35.263Z,89.10
2018-08-31T00:58:37.016Z,89.70
2018-08-31T01:01:42.283Z,89.50
2018-08-31T01:04:45.336Z,89.50
2018-08-31T01:07:47.876Z,88.90
2018-08-31T01:10:50.838Z,88.50
2018-08-31T01:13:54.977Z,88.20
2018-08-31T01:16:58.147Z,87.80
2018-08-31T01:20:00.238Z,87.40
2018-08-31T01:23:04.292Z,86.90
2018-08-31T01:26:06.038Z,86.60
2018-08-31T01:29:08.183Z,85.60
2018-08-31T01:32:11.899Z,85.90
2018-08-31T01:35:14.685Z,85.80
2018-08-31T01:38:16.895Z,85.80
2018-08-31T01:41:19.016Z,85.90
2018-08-31T01:44:21.282Z,86.00
2018-08-31T01:47:22.962Z,85.90
2018-08-31T01:50:25.235Z,86.10
2018-08-31T01:53:27.673Z,86.30
2018-08-31T01:56:29.538Z,86.90
2018-08-31T01:59:31.535Z,86.60
2018-08-31T02:02:34.629Z,87.00
2018-08-31T02:05:36.676Z,86.60
2018-08-31T02:08:40.364Z,86.60
2018-08-31T02:11:42.881Z,86.70
2018-08-31T02:14:45.185Z,86.60
2018-08-31T02:17:47.002Z,87.10
2018-08-31T02:20:48.825Z,87.10
2018-08-31T02:23:51.346Z,86.90
2018-08-31T02:26:53.301Z,87.00
2018-08-31T02:29:55.224Z,86.80
2018-08-31T02:32:57.056Z,87.10
2018-08-31T02:36:00.185Z,87.10
2018-08-31T02:39:03.365Z,87.10
2018-08-31T02:42:07.805Z,87.50
2018-08-31T02:45:09.803Z,87.70
2018-08-31T02:48:11.776Z,88.10
2018-08-31T02:51:14.384Z,88.30
2018-08-31T02:54:17.385Z,88.70
2018-08-31T02:57:19.953Z,88.80
2018-08-31T03:00:21.677Z,89.30
2018-08-31T03:03:24.017Z,89.00
2018-08-31T03:06:26.139Z,88.60
2018-08-31T03:09:27.870Z,88.50
2018-08-31T03:12:29.891Z,88.40
2018-08-31T03:15:31.912Z,88.70
2018-08-31T03:18:34.001Z,88.50
2018-08-31T03:21:36.146Z,88.60
2018-08-31T03:24:37.887Z,88.60
2018-08-31T03:27:39.647Z,88.70
2018-08-31T03:30:41.996Z,88.80
2018-08-31T03:33:44.027Z,88.50
2018-08-31T03:36:44.667Z,88.40
2018-08-31T03:39:47.144Z,88.40
2018-08-31T03:42:49.384Z,88.30
2018-08-31T03:45:51.914Z,88.10
2018-08-31T03:48:56.484Z,87.80
2018-08-31T03:51:59.976Z,87.90
2018-08-31T03:55:03.524Z,87.60
2018-08-31T03:58:01.957Z,87.30
2018-08-31T04:01:00.091Z,86.90
2018-08-31T04:03:58.152Z,86.60
2018-08-31T04:06:56.017Z,86.40
2018-08-31T04:09:54.088Z,86.30
2018-08-31T04:12:52.169Z,86.10
2018-08-31T04:15:50.310Z,85.90
2018-08-31T04:18:48.675Z,85.80
2018-08-31T04:21:46.931Z,85.70
2018-08-31T04:24:45.928Z,85.70
2018-08-31T04:27:43.960Z,85.60
2018-08-31T04:30:42.093Z,85.60
2018-08-31T04:33:40.440Z,85.50
2018-08-31T04:36:39.411Z,85.30
2018-08-31T04:39:37.452Z,85.40
2018-08-31T04:42:35.505Z,85.40
2018-08-31T04:45:33.465Z,85.30
2018-08-31T04:48:31.330Z,85.40
2018-08-31T04:51:29.272Z,85.40
2018-08-31T04:54:27.136Z,85.40
2018-08-31T04:57:24.996Z,85.40
2018-08-31T05:00:22.961Z,85.50
2018-08-31T05:03:20.955Z,85.60
2018-08-31T05:06:19.056Z,85.60
2018-08-31T05:09:19.373Z,85.30
2018-08-31T05:12:17.355Z,84.90
2018-08-31T05:15:15.372Z,84.60
2018-08-31T05:18:13.284Z,83.70
2018-08-31T05:21:11.519Z,83.30
2018-08-31T05:24:09.362Z,82.80
2018-08-31T05:27:07.429Z,82.40
2018-08-31T05:30:05.485Z,82.20
2018-08-31T05:33:03.442Z,81.00
2018-08-31T05:36:02.328Z,80.40
2018-08-31T05:39:00.337Z,79.80
2018-08-31T05:41:58.336Z,78.70
2018-08-31T05:44:56.425Z,78.20
2018-08-31T05:47:54.476Z,77.70
2018-08-31T05:50:52.435Z,76.80
2018-08-31T05:53:50.306Z,76.30
2018-08-31T05:56:49.155Z,75.50
2018-08-31T05:59:47.215Z,75.60
2018-08-31T06:02:45.284Z,74.10
2018-08-31T06:05:43.245Z,73.80
2018-08-31T06:08:41.410Z,73.40
2018-08-31T06:11:39.351Z,72.40
2018-08-31T06:14:37.137Z,72.00
2018-08-31T06:17:35.334Z,72.30
2018-08-31T06:20:33.538Z,71.50
2018-08-31T06:23:31.855Z,70.40
2018-08-31T06:26:30.798Z,69.80
2018-08-31T06:29:28.951Z,69.50
2018-08-31T06:32:26.819Z,69.30
2018-08-31T06:35:24.963Z,69.20
2018-08-31T06:38:23.025Z,68.80
2018-08-31T06:41:21.150Z,68.60
2018-08-31T06:44:19.356Z,68.20
2018-08-31T06:47:18.374Z,67.80
2018-08-31T06:50:17.224Z,67.60
2018-08-31T06:53:15.464Z,66.80
2018-08-31T06:56:13.648Z,66.60
2018-08-31T06:59:11.683Z,66.80
2018-08-31T07:02:09.563Z,66.50
2018-08-31T07:05:07.714Z,66.20
2018-08-31T07:08:05.908Z,66.00
2018-08-31T07:11:03.984Z,66.10
2018-08-31T07:14:01.980Z,65.80
2018-08-31T07:17:00.956Z,65.40
2018-08-31T07:19:59.116Z,65.10
2018-08-31T07:22:56.899Z,64.70
2018-08-31T07:25:54.849Z,64.30
2018-08-31T07:28:52.816Z,64.30
2018-08-31T07:31:51.000Z,63.90
2018-08-31T07:34:49.245Z,63.40
2018-08-31T07:37:47.332Z,63.10
2018-08-31T07:40:45.495Z,63.30
2018-08-31T07:43:45.092Z,62.70
2018-08-31T07:46:46.938Z,62.50
2018-08-31T07:49:48.787Z,62.90
2018-08-31T07:52:48.997Z,62.60
2018-08-31T07:55:49.936Z,62.10
2018-08-31T07:58:49.331Z,61.50
2018-08-31T08:01:49.531Z,60.60
2018-08-31T08:04:49.332Z,60.60
2018-08-31T08:07:49.653Z,59.80
2018-08-31T08:10:49.548Z,60.00
2018-08-31T08:13:50.781Z,59.70
2018-08-31T08:16:49.465Z,59.20
2018-08-31T08:19:47.524Z,59.10
2018-08-31T08:22:45.767Z,59.20
2018-08-31T08:25:44.960Z,59.00
2018-08-31T08:28:42.912Z,58.50
2018-08-31T08:31:41.035Z,58.50
2018-08-31T08:34:39.976Z,58.00
2018-08-31T08:37:38.019Z,57.80
2018-08-31T08:40:36.088Z,57.70
2018-08-31T08:43:34.442Z,57.50
2018-08-31T08:46:34.766Z,57.40
2018-08-31T08:49:35.372Z,57.70
2018-08-31T08:52:33.693Z,57.90
2018-08-31T08:55:31.751Z,58.10
2018-08-31T08:58:30.013Z,58.00
2018-08-31T09:01:28.165Z,58.40
2018-08-31T09:04:35.043Z,57.30
2018-08-31T09:07:33.112Z,57.40
2018-08-31T09:10:31.202Z,57.00
2018-08-31T09:13:29.239Z,57.20
2018-08-31T09:16:27.328Z,57.30
2018-08-31T09:19:25.588Z,57.30
2018-08-31T09:22:24.337Z,57.30
2018-08-31T09:25:22.581Z,57.50
2018-08-31T09:28:20.504Z,57.20
2018-08-31T09:31:21.650Z,56.70
2018-08-31T09:34:19.822Z,56.30
2018-08-31T09:37:18.719Z,56.30
2018-08-31T09:40:17.711Z,56.60
2018-08-31T09:43:17.730Z,56.30
2018-08-31T09:46:17.979Z,56.20
2018-08-31T09:49:19.203Z,56.00
2018-08-31T09:52:19.203Z,55.90
2018-08-31T09:55:18.131Z,55.80
2018-08-31T09:58:16.237Z,56.10
2018-08-31T10:01:21.426Z,56.40
2018-08-31T10:04:19.595Z,56.10
2018-08-31T10:07:17.859Z,56.60
2018-08-31T10:10:17.052Z,57.10
2018-08-31T10:13:15.048Z,57.40
2018-08-31T10:16:12.863Z,57.70
2018-08-31T10:19:11.136Z,58.20
2018-08-31T10:22:09.170Z,58.50
2018-08-31T10:25:07.136Z,58.90
2018-08-31T10:28:05.196Z,59.40
2018-08-31T10:31:03.159Z,60.40
2018-08-31T10:34:01.219Z,60.30
2018-08-31T10:36:59.189Z,60.60
2018-08-31T10:39:57.279Z,60.40
2018-08-31T10:42:55.570Z,61.20
2018-08-31T10:45:53.648Z,60.90
2018-08-31T10:48:51.932Z,61.10
2018-08-31T10:51:51.004Z,61.70
2018-08-31T10:54:48.962Z,61.50
2018-08-31T10:57:47.026Z,60.60
2018-08-31T11:00:45.199Z,61.20
2018-08-31T11:03:43.208Z,60.90
2018-08-31T11:06:41.415Z,60.60
2018-08-31T11:09:39.481Z,60.80
2018-08-31T11:12:38.344Z,61.00
2018-08-31T11:18:20.663Z,61.00
2018-08-31T11:21:19.753Z,60.60
2018-08-31T11:24:17.784Z,60.60
2018-08-31T11:27:16.530Z,60.60
2018-08-31T11:30:14.691Z,60.70
2018-08-31T11:33:12.886Z,60.50
2018-08-31T11:36:11.643Z,61.30
2018-08-31T11:39:10.656Z,61.50
2018-08-31T11:42:08.654Z,62.40
2018-08-31T11:45:07.553Z,63.30
2018-08-31T11:48:05.479Z,63.60
2018-08-31T11:51:03.502Z,63.60
2018-08-31T11:54:01.571Z,64.10
2018-08-31T11:56:59.540Z,64.40
2018-08-31T11:59:57.594Z,65.00
2018-08-31T12:02:55.578Z,65.70
2018-08-31T12:05:54.527Z,67.00
2018-08-31T12:08:52.503Z,67.60
2018-08-31T12:11:50.552Z,69.20
2018-08-31T12:14:48.637Z,69.40
2018-08-31T12:17:46.592Z,70.20
2018-08-31T12:20:44.717Z,70.80
2018-08-31T12:23:43.606Z,70.60
2018-08-31T12:26:41.467Z,70.50
2018-08-31T12:29:39.479Z,70.60
2018-08-31T12:32:38.549Z,70.80
2018-08-31T12:35:37.288Z,71.60
2018-08-31T12:38:35.207Z,71.50
2018-08-31T12:41:33.229Z,71.50
2018-08-31T12:44:32.176Z,72.30
2018-08-31T12:47:31.065Z,72.80
2018-08-31T12:50:28.829Z,73.10
2018-08-31T12:53:26.937Z,73.30
2018-08-31T12:56:24.908Z,73.10
2018-08-31T12:59:23.897Z,73.90
2018-08-31T13:02:21.981Z,74.60
2018-08-31T13:05:21.296Z,75.40
2018-08-31T13:08:19.341Z,75.80
2018-08-31T13:11:17.500Z,76.10
2018-08-31T13:14:16.272Z,76.50
2018-08-31T13:17:15.453Z,76.50
2018-08-31T13:20:13.622Z,77.10
2018-08-31T13:23:11.567Z,77.50
2018-08-31T13:26:09.519Z,77.10
2018-08-31T13:29:07.518Z,77.10
2018-08-31T13:32:05.454Z,77.70
2018-08-31T13:35:03.304Z,77.70
2018-08-31T13:38:01.481Z,77.90
2018-08-31T13:40:59.427Z,78.20
2018-08-31T13:43:58.502Z,78.90
2018-08-31T13:46:56.592Z,79.20
2018-08-31T13:49:55.466Z,79.70
2018-08-31T13:52:53.610Z,80.20
2018-08-31T13:55:51.603Z,80.00
2018-08-31T13:58:49.737Z,80.80
2018-08-31T14:01:47.831Z,81.00
2018-08-31T14:08:47.968Z,81.90
2018-08-31T14:11:46.040Z,81.80
2018-08-31T14:14:44.093Z,81.90
2018-08-31T14:17:42.154Z,82.10
2018-08-31T14:20:40.298Z,82.00
2018-08-31T14:23:38.298Z,82.00
2018-08-31T14:26:36.388Z,81.30
2018-08-31T14:29:34.421Z,81.70
2018-08-31T14:32:32.473Z,81.90
2018-08-31T14:35:31.438Z,81.90
2018-08-31T14:38:29.313Z,82.30
2018-08-31T14:41:27.353Z,82.30
2018-08-31T14:44:25.312Z,82.20
2018-08-31T14:47:23.267Z,82.40
2018-08-31T14:50:21.342Z,82.50
2018-08-31T14:53:19.265Z,82.20
2018-08-31T14:56:17.563Z,82.10
2018-08-31T14:59:15.599Z,82.40
2018-08-31T15:02:13.766Z,82.40
2018-08-31T15:05:11.782Z,82.50
2018-08-31T15:08:09.885Z,82.50
2018-08-31T15:11:07.861Z,82.30
2018-08-31T15:14:05.813Z,82.60
2018-08-31T15:17:04.703Z,82.50
2018-08-31T15:20:02.848Z,82.70
2018-08-31T15:23:00.701Z,82.70
2018-08-31T15:25:58.772Z,82.60
2018-08-31T15:28:57.040Z,82.40
2018-08-31T15:31:55.193Z,82.00
2018-08-31T15:34:53.364Z,82.30
2018-08-31T15:37:51.688Z,82.60
2018-08-31T15:40:51.310Z,83.00
2018-08-31T15:43:49.166Z,83.60
2018-08-31T15:46:47.065Z,82.80
2018-08-31T15:49:46.095Z,84.20
2018-08-31T15:52:44.995Z,83.80
2018-08-31T15:55:43.066Z,84.00
2018-08-31T15:58:41.018Z,84.60
2018-08-31T16:01:38.981Z,84.60
2018-08-31T16:04:38.943Z,85.30
2018-08-31T16:07:37.033Z,85.50
2018-08-31T16:10:34.997Z,86.00
2018-08-31T16:13:33.058Z,86.70
2018-08-31T16:16:31.023Z,86.60
2018-08-31T16:19:29.924Z,86.80
2018-08-31T16:22:28.059Z,87.00
2018-08-31T16:25:26.095Z,87.20
2018-08-31T16:28:24.274Z,87.40
2018-08-31T16:31:22.343Z,87.50
2018-08-31T16:34:22.365Z,88.00
2018-08-31T16:37:21.448Z,87.70
2018-08-31T16:40:19.579Z,88.00
2018-08-31T16:43:18.472Z,88.90
2018-08-31T16:46:16.528Z,88.60
2018-08-31T16:49:14.552Z,88.40
2018-08-31T16:52:12.299Z,88.80
2018-08-31T16:55:10.320Z,89.10
2018-08-31T16:58:08.461Z,89.30
2018-08-31T17:01:06.302Z,89.40
2018-08-31T17:04:04.489Z,89.70
2018-08-31T17:07:02.464Z,90.20
2018-08-31T17:10:00.716Z,90.00
2018-08-31T17:12:58.646Z,89.80
2018-08-31T17:15:56.611Z,90.20
2018-08-31T17:18:54.375Z,90.40
2018-08-31T17:21:52.246Z,90.40
2018-08-31T17:24:50.485Z,90.20
2018-08-31T17:27:54.584Z,90.20
2018-08-31T17:30:52.555Z,90.30
2018-08-31T17:34:58.660Z,90.40
2018-08-31T17:37:56.720Z,90.50
2018-08-31T17:40:54.455Z,90.50
2018-08-31T17:43:52.527Z,90.60
2018-08-31T17:46:50.588Z,90.70
2018-08-31T17:49:49.476Z,90.50
2018-08-31T17:52:47.501Z,91.00
2018-08-31T17:55:46.599Z,90.70
2018-08-31T17:58:44.671Z,90.90
2018-08-31T18:01:42.665Z,91.10
2018-08-31T18:04:40.765Z,90.80
2018-08-31T18:07:39.867Z,91.20
2018-08-31T18:10:37.855Z,91.20
2018-08-31T18:13:35.789Z,91.20
2018-08-31T18:16:35.780Z,91.20
2018-08-31T18:19:34.357Z,91.20
2018-08-31T18:22:32.844Z,91.20
2018-08-31T18:25:32.129Z,91.30
2018-08-31T18:28:30.859Z,91.50
2018-08-31T18:31:28.867Z,91.50
2018-08-31T18:34:27.651Z,91.50
2018-08-31T18:37:26.855Z,91.50
2018-08-31T18:43:32.438Z,91.70
2018-08-31T18:46:31.395Z,91.80
2018-08-31T18:49:30.543Z,91.80
2018-08-31T18:52:28.636Z,91.80
2018-08-31T18:55:26.556Z,91.90
2018-08-31T18:58:24.650Z,92.00
2018-08-31T19:01:23.798Z,91.90
2018-08-31T19:04:21.764Z,91.90
2018-08-31T19:07:20.713Z,92.20
2018-08-31T19:10:18.689Z,92.20
2018-08-31T19:13:16.727Z,92.00
2018-08-31T19:16:14.869Z,91.90
2018-08-31T19:19:13.653Z,91.90
2018-08-31T19:22:11.538Z,91.90
2018-08-31T19:25:09.637Z,91.90
2018-08-31T19:28:07.571Z,91.60
2018-08-31T19:31:05.581Z,92.10
2018-08-31T19:34:03.623Z,92.00
2018-08-31T19:37:02.883Z,92.00
2018-08-31T19:40:00.849Z,92.20
2018-08-31T19:42:59.827Z,92.20
2018-08-31T19:45:57.771Z,92.30
2018-08-31T19:48:55.935Z,92.20
2018-08-31T19:51:53.944Z,92.30
2018-08-31T19:54:53.060Z,92.20
2018-08-31T19:57:51.024Z,92.20
2018-08-31T20:00:48.983Z,92.20
2018-08-31T20:03:49.083Z,92.60
2018-08-31T20:06:50.941Z,92.40
2018-08-31T20:09:51.133Z,92.50
2018-08-31T20:12:53.569Z,92.40
2018-08-31T20:15:54.799Z,92.70
2018-08-31T20:18:55.719Z,92.50
2018-08-31T20:21:54.383Z,92.60
2018-08-31T20:24:52.292Z,92.60
2018-08-31T20:27:50.265Z,92.70
2018-08-31T20:30:49.513Z,92.90
2018-08-31T20:33:48.442Z,92.70
2018-08-31T20:36:47.416Z,92.70
2018-08-31T20:39:46.286Z,92.70
2018-08-31T20:42:44.355Z,92.70
2018-08-31T20:45:43.437Z,92.90
2018-08-31T20:48:41.499Z,92.60
2018-08-31T20:51:39.468Z,92.60
2018-08-31T20:54:37.307Z,92.60
2018-08-31T20:57:36.295Z,92.70
2018-08-31T21:00:34.326Z,92.70
2018-08-31T21:03:32.700Z,92.60
2018-08-31T21:06:32.154Z,92.70
2018-08-31T21:09:30.983Z,92.80
2018-08-31T21:12:29.057Z,92.70
2018-08-31T21:15:27.116Z,92.80
2018-08-31T21:18:25.243Z,92.80
2018-08-31T21:21:23.131Z,92.80
2018-08-31T21:24:21.330Z,92.70
2018-08-31T21:27:19.350Z,92.90
2018-08-31T21:30:17.309Z,92.70
2018-08-31T21:33:16.492Z,92.60
2018-08-31T21:36:16.532Z,92.70
2018-08-31T21:39:15.376Z,92.80
2018-08-31T21:42:13.603Z,92.60
2018-08-31T21:45:11.705Z,92.80
2018-08-31T21:48:10.704Z,92.80
2018-08-31T21:51:09.467Z,92.90
2018-08-31T21:54:08.679Z,92.90
2018-08-31T21:57:07.553Z,93.00
2018-08-31T22:00:05.879Z,92.90
2018-08-31T22:03:04.779Z,92.80
2018-08-31T22:06:02.801Z,92.80
2018-08-31T22:09:01.608Z,92.80
2018-08-31T22:11:59.695Z,92.80
2018-08-31T22:14:57.744Z,92.90
2018-08-31T22:17:55.719Z,92.90
2018-08-31T22:20:53.876Z,93.00
2018-08-31T22:23:51.893Z,92.90
2018-08-31T22:26:49.956Z,92.90
2018-08-31T22:29:49.777Z,92.70
2018-08-31T22:32:48.660Z,93.20
2018-08-31T22:35:46.659Z,92.90
2018-08-31T22:38:44.854Z,93.00
2018-08-31T22:41:42.726Z,92.90
2018-08-31T22:44:43.667Z,93.20
2018-08-31T22:47:41.623Z,92.90
2018-08-31T22:50:40.620Z,92.90
2018-08-31T22:53:38.480Z,93.00
2018-08-31T22:56:36.396Z,92.90
2018-08-31T22:59:34.359Z,92.90
2018-08-31T23:02:32.354Z,93.00
2018-08-31T23:05:30.409Z,93.10
2018-08-31T23:08:28.928Z,93.20
2018-08-31T23:11:27.548Z,93.20
2018-08-31T23:14:25.499Z,93.20
2018-08-31T23:17:23.857Z,93.10
2018-08-31T23:20:21.797Z,93.00
2018-08-31T23:23:25.918Z,93.00
2018-08-31T23:26:25.106Z,93.30
2018-08-31T23:29:24.016Z,93.00
2018-08-31T23:32:23.154Z,93.10
2018-08-31T23:35:21.168Z,93.10
2018-08-31T23:38:20.095Z,93.20
2018-08-31T23:41:19.061Z,93.10
2018-08-31T23:44:16.933Z,93.20
2018-08-31T23:47:14.958Z,93.20
2018-08-31T23:50:15.277Z,93.20
2018-08-31T23:53:13.991Z,93.10
2018-08-31T23:56:12.041Z,93.10
2018-08-31T23:59:10.101Z,93.10
